sensor_id;sensor_type;location;lat;lon;timestamp;pressure;altitude;pressure_sealevel;temperature;humidity
41703;BME280;861;48.808;9.006;2023-01-31T00:01:40;98003.13;;;3.99;79.61
41703;BME280;861;48.808;9.006;2023-01-31T00:04:11;97994.25;;;3.99;79.46
41703;BME280;861;48.808;9.006;2023-01-31T00:06:43;97996.94;;;4.07;78.94
41703;BME280;861;48.808;9.006;2023-01-31T00:09:15;97997.44;;;3.92;79.47
41703;BME280;861;48.808;9.006;2023-01-31T00:11:42;97986.69;;;3.92;79.60
41703;BME280;861;48.808;9.006;2023-01-31T00:14:09;97979.53;;;4.05;78.60
41703;BME280;861;48.808;9.006;2023-01-31T00:16:36;97985.09;;;3.83;78.96
41703;BME280;861;48.808;9.006;2023-01-31T00:19:03;97974.81;;;3.76;79.37
41703;BME280;861;48.808;9.006;2023-01-31T00:21:31;97975.59;;;3.94;78.26
41703;BME280;861;48.808;9.006;2023-01-31T00:23:59;97968.75;;;3.96;78.37
41703;BME280;861;48.808;9.006;2023-01-31T00:26:33;97975.13;;;3.75;79.09
41703;BME280;861;48.808;9.006;2023-01-31T00:29:04;97972.13;;;3.59;79.40
41703;BME280;861;48.808;9.006;2023-01-31T00:31:33;97969.25;;;3.56;79.79
41703;BME280;861;48.808;9.006;2023-01-31T00:34:00;97971.97;;;3.56;79.53
41703;BME280;861;48.808;9.006;2023-01-31T00:36:33;97965.47;;;3.48;79.86
41703;BME280;861;48.808;9.006;2023-01-31T00:39:05;97964.34;;;3.49;79.41
41703;BME280;861;48.808;9.006;2023-01-31T00:41:36;97965.28;;;3.53;79.40
41703;BME280;861;48.808;9.006;2023-01-31T00:44:05;97964.34;;;3.41;79.96
41703;BME280;861;48.808;9.006;2023-01-31T00:46:32;97958.81;;;3.37;79.32
41703;BME280;861;48.808;9.006;2023-01-31T00:48:58;97960.38;;;3.30;79.75
41703;BME280;861;48.808;9.006;2023-01-31T00:51:26;97949.91;;;3.28;80.33
41703;BME280;861;48.808;9.006;2023-01-31T00:53:52;97957.34;;;3.14;81.06
41703;BME280;861;48.808;9.006;2023-01-31T00:56:23;97950.06;;;3.23;79.97
41703;BME280;861;48.808;9.006;2023-01-31T00:58:51;97955.16;;;3.42;79.40
41703;BME280;861;48.808;9.006;2023-01-31T01:01:27;97952.16;;;3.43;79.09
41703;BME280;861;48.808;9.006;2023-01-31T01:03:57;97946.16;;;3.46;79.02
41703;BME280;861;48.808;9.006;2023-01-31T01:06:24;97948.22;;;3.58;78.79
41703;BME280;861;48.808;9.006;2023-01-31T01:08:52;97946.94;;;3.47;79.54
41703;BME280;861;48.808;9.006;2023-01-31T01:11:26;97947.88;;;3.34;79.53
41703;BME280;861;48.808;9.006;2023-01-31T01:13:56;97955.44;;;3.06;81.22
41703;BME280;861;48.808;9.006;2023-01-31T01:16:33;97955.97;;;3.34;80.02
41703;BME280;861;48.808;9.006;2023-01-31T01:19:09;97951.53;;;3.46;79.71
41703;BME280;861;48.808;9.006;2023-01-31T01:21:38;97965.44;;;3.40;79.47
41703;BME280;861;48.808;9.006;2023-01-31T01:24:15;97954.19;;;3.21;80.00
41703;BME280;861;48.808;9.006;2023-01-31T01:26:44;97964.81;;;3.43;79.18
41703;BME280;861;48.808;9.006;2023-01-31T01:29:12;97961.97;;;3.56;79.19
41703;BME280;861;48.808;9.006;2023-01-31T01:31:39;97956.28;;;3.49;79.24
41703;BME280;861;48.808;9.006;2023-01-31T01:34:16;97952.31;;;3.55;78.91
41703;BME280;861;48.808;9.006;2023-01-31T01:36:43;97940.28;;;3.44;79.00
41703;BME280;861;48.808;9.006;2023-01-31T01:39:11;97947.72;;;3.47;79.33
41703;BME280;861;48.808;9.006;2023-01-31T01:41:39;97953.91;;;3.48;79.95
41703;BME280;861;48.808;9.006;2023-01-31T01:45:04;97952.31;;;3.38;80.82
41703;BME280;861;48.808;9.006;2023-01-31T01:47:48;97947.88;;;3.51;80.08
41703;BME280;861;48.808;9.006;2023-01-31T01:50:30;97957.88;;;3.42;80.63
41703;BME280;861;48.808;9.006;2023-01-31T01:53:14;97956.44;;;3.53;81.14
41703;BME280;861;48.808;9.006;2023-01-31T01:56:07;97969.25;;;3.64;80.34
41703;BME280;861;48.808;9.006;2023-01-31T01:58:57;97966.06;;;3.45;81.23
41703;BME280;861;48.808;9.006;2023-01-31T02:01:36;97963.06;;;3.38;81.03
41703;BME280;861;48.808;9.006;2023-01-31T02:04:12;97961.66;;;3.32;81.41
41703;BME280;861;48.808;9.006;2023-01-31T02:06:46;97961.97;;;3.31;81.65
41703;BME280;861;48.808;9.006;2023-01-31T02:09:59;97957.34;;;3.31;81.73
41703;BME280;861;48.808;9.006;2023-01-31T02:12:34;97954.38;;;3.58;80.70
41703;BME280;861;48.808;9.006;2023-01-31T02:15:02;97967.66;;;3.55;80.76
41703;BME280;861;48.808;9.006;2023-01-31T02:17:29;97958.81;;;3.54;80.99
41703;BME280;861;48.808;9.006;2023-01-31T02:28:02;97983.50;;;3.39;81.47
41703;BME280;861;48.808;9.006;2023-01-31T02:31:41;97977.34;;;3.39;81.50
41703;BME280;861;48.808;9.006;2023-01-31T02:44:51;97997.09;;;3.26;82.28
41703;BME280;861;48.808;9.006;2023-01-31T02:51:24;97995.03;;;3.31;81.79
41703;BME280;861;48.808;9.006;2023-01-31T02:54:14;98004.72;;;3.32;82.07
41703;BME280;861;48.808;9.006;2023-01-31T02:56:51;98008.03;;;3.38;81.59
41703;BME280;861;48.808;9.006;2023-01-31T02:59:23;98004.06;;;3.44;81.15
41703;BME280;861;48.808;9.006;2023-01-31T03:02:02;97999.97;;;3.46;80.73
41703;BME280;861;48.808;9.006;2023-01-31T03:04:32;98001.25;;;3.40;80.72
41703;BME280;861;48.808;9.006;2023-01-31T03:07:28;98004.91;;;3.53;80.54
41703;BME280;861;48.808;9.006;2023-01-31T03:10:34;98004.59;;;3.54;80.52
41703;BME280;861;48.808;9.006;2023-01-31T03:16:48;98001.25;;;3.40;81.00
41703;BME280;861;48.808;9.006;2023-01-31T03:20:07;97993.97;;;3.58;80.21
41703;BME280;861;48.808;9.006;2023-01-31T03:23:11;97992.72;;;3.64;79.76
41703;BME280;861;48.808;9.006;2023-01-31T03:25:45;97993.97;;;3.66;79.85
41703;BME280;861;48.808;9.006;2023-01-31T03:28:22;97998.41;;;3.62;79.57
41703;BME280;861;48.808;9.006;2023-01-31T03:31:20;97996.19;;;3.56;79.63
41703;BME280;861;48.808;9.006;2023-01-31T03:34:01;98009.47;;;3.52;79.84
41703;BME280;861;48.808;9.006;2023-01-31T03:40:29;98012.63;;;3.46;80.35
41703;BME280;861;48.808;9.006;2023-01-31T03:46:17;98016.44;;;3.28;80.38
41703;BME280;861;48.808;9.006;2023-01-31T03:48:56;98024.22;;;3.46;79.29
41703;BME280;861;48.808;9.006;2023-01-31T03:51:33;98014.53;;;3.45;79.46
41703;BME280;861;48.808;9.006;2023-01-31T03:54:15;98018.28;;;3.18;80.72
41703;BME280;861;48.808;9.006;2023-01-31T03:57:15;98010.84;;;3.15;80.74
41703;BME280;861;48.808;9.006;2023-01-31T03:59:54;98015.69;;;2.96;80.67
41703;BME280;861;48.808;9.006;2023-01-31T04:02:34;98023.34;;;3.11;80.73
41703;BME280;861;48.808;9.006;2023-01-31T04:05:20;98034.44;;;3.18;80.30
41703;BME280;861;48.808;9.006;2023-01-31T04:07:50;98031.16;;;3.30;79.51
41703;BME280;861;48.808;9.006;2023-01-31T04:10:18;98030.50;;;3.33;78.79
41703;BME280;861;48.808;9.006;2023-01-31T04:12:46;98033.81;;;3.22;79.93
41703;BME280;861;48.808;9.006;2023-01-31T04:15:13;98032.56;;;3.36;78.41
41703;BME280;861;48.808;9.006;2023-01-31T04:17:40;98033.97;;;3.25;78.74
41703;BME280;861;48.808;9.006;2023-01-31T04:20:08;98038.06;;;3.14;79.47
41703;BME280;861;48.808;9.006;2023-01-31T04:22:35;98037.28;;;3.22;79.51
41703;BME280;861;48.808;9.006;2023-01-31T04:25:01;98026.84;;;3.21;79.47
41703;BME280;861;48.808;9.006;2023-01-31T04:27:28;98031.44;;;3.20;79.21
41703;BME280;861;48.808;9.006;2023-01-31T04:29:54;98035.06;;;3.15;79.43
41703;BME280;861;48.808;9.006;2023-01-31T04:32:21;98029.56;;;3.29;78.62
41703;BME280;861;48.808;9.006;2023-01-31T04:34:47;98033.19;;;3.25;79.41
41703;BME280;861;48.808;9.006;2023-01-31T04:37:13;98024.97;;;3.30;78.59
41703;BME280;861;48.808;9.006;2023-01-31T04:39:39;98039.69;;;3.32;78.75
41703;BME280;861;48.808;9.006;2023-01-31T04:42:05;98036.19;;;3.23;79.02
41703;BME280;861;48.808;9.006;2023-01-31T04:44:31;98037.19;;;3.36;78.32
41703;BME280;861;48.808;9.006;2023-01-31T04:46:58;98043.16;;;3.24;79.06
41703;BME280;861;48.808;9.006;2023-01-31T04:49:24;98043.16;;;3.33;78.39
41703;BME280;861;48.808;9.006;2023-01-31T04:51:50;98030.84;;;3.40;78.30
41703;BME280;861;48.808;9.006;2023-01-31T04:54:16;98030.84;;;3.40;77.91
41703;BME280;861;48.808;9.006;2023-01-31T04:56:42;98028.78;;;3.37;78.16
41703;BME280;861;48.808;9.006;2023-01-31T04:59:09;98024.63;;;3.31;78.42
41703;BME280;861;48.808;9.006;2023-01-31T05:01:35;98013.06;;;3.13;79.82
41703;BME280;861;48.808;9.006;2023-01-31T05:04:01;98024.28;;;3.07;79.18
41703;BME280;861;48.808;9.006;2023-01-31T05:06:27;98033.59;;;3.01;79.67
41703;BME280;861;48.808;9.006;2023-01-31T05:08:53;98035.75;;;2.82;80.18
41703;BME280;861;48.808;9.006;2023-01-31T05:11:20;98031.84;;;2.96;79.61
41703;BME280;861;48.808;9.006;2023-01-31T05:13:46;98028.50;;;2.91;80.24
41703;BME280;861;48.808;9.006;2023-01-31T05:16:13;98029.81;;;3.10;80.13
41703;BME280;861;48.808;9.006;2023-01-31T05:18:39;98033.50;;;3.23;78.55
41703;BME280;861;48.808;9.006;2023-01-31T05:21:07;98028.06;;;2.97;79.76
41703;BME280;861;48.808;9.006;2023-01-31T05:23:34;98034.75;;;3.08;79.50
41703;BME280;861;48.808;9.006;2023-01-31T05:26:00;98033.59;;;3.01;79.99
41703;BME280;861;48.808;9.006;2023-01-31T05:28:27;98037.44;;;3.08;79.48
41703;BME280;861;48.808;9.006;2023-01-31T05:31:00;98033.97;;;3.17;79.84
41703;BME280;861;48.808;9.006;2023-01-31T05:33:28;98039.47;;;3.03;79.39
41703;BME280;861;48.808;9.006;2023-01-31T05:35:57;98036.44;;;3.04;79.92
41703;BME280;861;48.808;9.006;2023-01-31T05:38:24;98035.84;;;3.16;79.73
41703;BME280;861;48.808;9.006;2023-01-31T05:40:51;98034.25;;;3.06;79.80
41703;BME280;861;48.808;9.006;2023-01-31T05:43:17;98041.09;;;3.30;78.86
41703;BME280;861;48.808;9.006;2023-01-31T05:45:44;98036.22;;;3.32;78.36
41703;BME280;861;48.808;9.006;2023-01-31T05:48:10;98036.81;;;3.20;79.38
41703;BME280;861;48.808;9.006;2023-01-31T05:50:36;98038.81;;;3.06;79.08
41703;BME280;861;48.808;9.006;2023-01-31T05:53:02;98043.75;;;3.04;79.42
41703;BME280;861;48.808;9.006;2023-01-31T05:55:30;98040.28;;;2.73;80.49
41703;BME280;861;48.808;9.006;2023-01-31T05:57:56;98038.94;;;2.92;79.88
41703;BME280;861;48.808;9.006;2023-01-31T06:00:23;98037.44;;;3.17;78.63
41703;BME280;861;48.808;9.006;2023-01-31T06:02:49;98038.69;;;3.11;78.04
41703;BME280;861;48.808;9.006;2023-01-31T06:05:16;98033.13;;;2.60;80.59
41703;BME280;861;48.808;9.006;2023-01-31T06:07:42;98035.25;;;2.41;81.83
41703;BME280;861;48.808;9.006;2023-01-31T06:10:10;98038.81;;;2.06;82.63
41703;BME280;861;48.808;9.006;2023-01-31T06:12:36;98038.50;;;2.07;82.95
41703;BME280;861;48.808;9.006;2023-01-31T06:15:04;98041.78;;;2.26;82.21
41703;BME280;861;48.808;9.006;2023-01-31T06:17:30;98045.63;;;2.12;82.68
41703;BME280;861;48.808;9.006;2023-01-31T06:19:56;98045.63;;;2.12;82.73
41703;BME280;861;48.808;9.006;2023-01-31T06:22:23;98044.50;;;2.04;82.34
41703;BME280;861;48.808;9.006;2023-01-31T06:24:49;98035.31;;;2.05;82.12
41703;BME280;861;48.808;9.006;2023-01-31T06:27:15;98049.84;;;2.26;82.22
41703;BME280;861;48.808;9.006;2023-01-31T06:29:42;98038.31;;;2.04;82.85
41703;BME280;861;48.808;9.006;2023-01-31T06:32:08;98055.75;;;1.71;83.20
41703;BME280;861;48.808;9.006;2023-01-31T06:34:34;98051.94;;;2.07;82.98
41703;BME280;861;48.808;9.006;2023-01-31T06:37:00;98049.25;;;2.07;82.49
41703;BME280;861;48.808;9.006;2023-01-31T06:39:26;98061.31;;;1.96;82.10
41703;BME280;861;48.808;9.006;2023-01-31T06:41:52;98054.38;;;2.17;81.43
41703;BME280;861;48.808;9.006;2023-01-31T06:44:19;98053.47;;;2.22;81.25
41703;BME280;861;48.808;9.006;2023-01-31T06:46:45;98067.13;;;1.90;82.34
41703;BME280;861;48.808;9.006;2023-01-31T06:49:11;98061.09;;;2.06;82.41
41703;BME280;861;48.808;9.006;2023-01-31T06:51:38;98061.81;;;1.98;81.57
41703;BME280;861;48.808;9.006;2023-01-31T06:54:04;98068.53;;;1.87;82.68
41703;BME280;861;48.808;9.006;2023-01-31T06:56:30;98056.13;;;1.78;83.39
41703;BME280;861;48.808;9.006;2023-01-31T06:58:56;98050.34;;;1.84;82.87
41703;BME280;861;48.808;9.006;2023-01-31T07:01:23;98052.88;;;1.67;83.93
41703;BME280;861;48.808;9.006;2023-01-31T07:03:49;98056.75;;;1.61;83.99
41703;BME280;861;48.808;9.006;2023-01-31T07:06:16;98049.00;;;1.95;82.92
41703;BME280;861;48.808;9.006;2023-01-31T07:08:45;98054.13;;;2.05;82.19
41703;BME280;861;48.808;9.006;2023-01-31T07:11:12;98050.03;;;2.08;81.90
41703;BME280;861;48.808;9.006;2023-01-31T07:13:38;98049.16;;;1.99;82.59
41703;BME280;861;48.808;9.006;2023-01-31T07:16:05;98059.47;;;1.83;82.77
41703;BME280;861;48.808;9.006;2023-01-31T07:18:31;98060.78;;;1.86;82.63
41703;BME280;861;48.808;9.006;2023-01-31T07:20:57;98061.88;;;2.07;82.07
41703;BME280;861;48.808;9.006;2023-01-31T07:23:23;98052.09;;;2.33;80.49
41703;BME280;861;48.808;9.006;2023-01-31T07:25:49;98060.72;;;2.21;81.41
41703;BME280;861;48.808;9.006;2023-01-31T07:28:15;98068.03;;;1.85;82.57
41703;BME280;861;48.808;9.006;2023-01-31T07:30:41;98066.88;;;1.78;83.64
41703;BME280;861;48.808;9.006;2023-01-31T07:33:10;98068.28;;;1.97;82.98
41703;BME280;861;48.808;9.006;2023-01-31T07:35:37;98070.50;;;1.95;82.21
41703;BME280;861;48.808;9.006;2023-01-31T07:38:03;98070.06;;;2.02;82.71
41703;BME280;861;48.808;9.006;2023-01-31T07:40:29;98068.22;;;1.89;82.87
41703;BME280;861;48.808;9.006;2023-01-31T07:42:59;98063.06;;;2.14;82.14
41703;BME280;861;48.808;9.006;2023-01-31T07:45:26;98071.47;;;2.21;81.81
41703;BME280;861;48.808;9.006;2023-01-31T07:47:56;98063.81;;;2.15;82.12
41703;BME280;861;48.808;9.006;2023-01-31T07:50:23;98064.75;;;2.10;82.28
41703;BME280;861;48.808;9.006;2023-01-31T07:52:51;98080.81;;;2.02;82.08
41703;BME280;861;48.808;9.006;2023-01-31T07:55:18;98076.81;;;1.99;82.64
41703;BME280;861;48.808;9.006;2023-01-31T07:57:44;98076.50;;;2.45;81.05
41703;BME280;861;48.808;9.006;2023-01-31T08:00:11;98080.06;;;2.10;82.70
41703;BME280;861;48.808;9.006;2023-01-31T08:02:57;98087.06;;;1.97;82.77
41703;BME280;861;48.808;9.006;2023-01-31T08:05:45;98079.28;;;2.31;81.91
41703;BME280;861;48.808;9.006;2023-01-31T08:08:13;98087.03;;;2.33;82.32
41703;BME280;861;48.808;9.006;2023-01-31T08:10:39;98092.06;;;2.78;80.32
41703;BME280;861;48.808;9.006;2023-01-31T08:13:05;98091.78;;;2.58;80.63
41703;BME280;861;48.808;9.006;2023-01-31T08:15:33;98094.31;;;2.85;79.89
41703;BME280;861;48.808;9.006;2023-01-31T08:17:59;98091.75;;;2.88;79.92
41703;BME280;861;48.808;9.006;2023-01-31T08:20:25;98089.81;;;3.11;79.39
41703;BME280;861;48.808;9.006;2023-01-31T08:22:51;98087.59;;;3.13;79.30
41703;BME280;861;48.808;9.006;2023-01-31T08:25:17;98083.09;;;3.39;78.20
41703;BME280;861;48.808;9.006;2023-01-31T08:27:43;98086.41;;;3.28;77.89
41703;BME280;861;48.808;9.006;2023-01-31T08:30:10;98084.06;;;3.52;77.78
41703;BME280;861;48.808;9.006;2023-01-31T08:32:37;98058.13;;;3.56;77.52
41703;BME280;861;48.808;9.006;2023-01-31T08:35:03;98071.22;;;3.40;77.92
41703;BME280;861;48.808;9.006;2023-01-31T08:37:30;98063.75;;;3.29;78.13
41703;BME280;861;48.808;9.006;2023-01-31T08:39:57;98066.34;;;3.51;77.75
41703;BME280;861;48.808;9.006;2023-01-31T08:42:23;98056.81;;;3.53;77.79
41703;BME280;861;48.808;9.006;2023-01-31T08:44:49;98066.38;;;3.76;76.51
41703;BME280;861;48.808;9.006;2023-01-31T08:47:15;98057.19;;;3.77;76.07
41703;BME280;861;48.808;9.006;2023-01-31T08:49:41;98045.75;;;3.63;77.20
41703;BME280;861;48.808;9.006;2023-01-31T08:52:07;98058.63;;;3.92;75.97
41703;BME280;861;48.808;9.006;2023-01-31T08:54:33;98048.28;;;3.77;75.92
41703;BME280;861;48.808;9.006;2023-01-31T08:57:00;98049.09;;;3.94;75.24
41703;BME280;861;48.808;9.006;2023-01-31T08:59:26;98049.91;;;3.95;76.57
41703;BME280;861;48.808;9.006;2023-01-31T09:01:52;98057.81;;;4.17;74.51
41703;BME280;861;48.808;9.006;2023-01-31T09:04:18;98055.75;;;3.97;75.49
41703;BME280;861;48.808;9.006;2023-01-31T09:06:44;98055.59;;;4.19;74.88
41703;BME280;861;48.808;9.006;2023-01-31T09:09:10;98060.00;;;4.40;74.61
41703;BME280;861;48.808;9.006;2023-01-31T09:11:36;98060.00;;;4.49;73.40
41703;BME280;861;48.808;9.006;2023-01-31T09:14:04;98058.53;;;4.60;72.44
41703;BME280;861;48.808;9.006;2023-01-31T09:16:31;98053.63;;;4.45;72.80
41703;BME280;861;48.808;9.006;2023-01-31T09:18:57;98060.28;;;4.56;72.34
41703;BME280;861;48.808;9.006;2023-01-31T09:21:24;98059.16;;;4.57;72.41
41703;BME280;861;48.808;9.006;2023-01-31T09:23:58;98059.63;;;4.59;72.05
41703;BME280;861;48.808;9.006;2023-01-31T09:26:30;98049.59;;;4.68;72.15
41703;BME280;861;48.808;9.006;2023-01-31T09:28:58;98040.72;;;4.67;72.52
41703;BME280;861;48.808;9.006;2023-01-31T09:31:26;98048.41;;;4.48;73.67
41703;BME280;861;48.808;9.006;2023-01-31T09:33:52;98038.91;;;4.42;72.87
41703;BME280;861;48.808;9.006;2023-01-31T09:36:22;98040.56;;;4.72;72.37
41703;BME280;861;48.808;9.006;2023-01-31T09:38:56;98047.53;;;4.73;72.42
41703;BME280;861;48.808;9.006;2023-01-31T09:41:54;98049.75;;;4.80;72.26
41703;BME280;861;48.808;9.006;2023-01-31T09:45:05;98040.50;;;4.81;73.03
41703;BME280;861;48.808;9.006;2023-01-31T09:47:46;98041.66;;;4.80;72.14
41703;BME280;861;48.808;9.006;2023-01-31T09:50:46;98040.16;;;4.45;73.13
41703;BME280;861;48.808;9.006;2023-01-31T09:53:20;98032.44;;;4.26;73.28
41703;BME280;861;48.808;9.006;2023-01-31T09:56:40;98045.16;;;4.72;72.54
41703;BME280;861;48.808;9.006;2023-01-31T09:59:38;98045.22;;;4.55;73.21
41703;BME280;861;48.808;9.006;2023-01-31T10:03:09;98060.91;;;4.61;73.41
41703;BME280;861;48.808;9.006;2023-01-31T10:06:10;98062.41;;;4.88;72.72
41703;BME280;861;48.808;9.006;2023-01-31T10:09:03;98053.09;;;5.06;71.85
41703;BME280;861;48.808;9.006;2023-01-31T10:11:57;98054.97;;;4.85;72.35
41703;BME280;861;48.808;9.006;2023-01-31T10:14:56;98052.59;;;4.84;73.06
41703;BME280;861;48.808;9.006;2023-01-31T10:17:42;98052.78;;;4.70;74.49
41703;BME280;861;48.808;9.006;2023-01-31T10:20:38;98057.50;;;4.82;72.67
41703;BME280;861;48.808;9.006;2023-01-31T10:23:48;98059.00;;;5.00;71.49
41703;BME280;861;48.808;9.006;2023-01-31T10:26:36;98051.13;;;4.95;71.07
41703;BME280;861;48.808;9.006;2023-01-31T10:29:37;98048.50;;;5.07;72.32
41703;BME280;861;48.808;9.006;2023-01-31T10:32:37;98051.41;;;5.31;71.84
41703;BME280;861;48.808;9.006;2023-01-31T10:35:39;98048.19;;;5.08;72.13
41703;BME280;861;48.808;9.006;2023-01-31T10:38:25;98044.22;;;5.35;70.01
41703;BME280;861;48.808;9.006;2023-01-31T10:41:14;98044.53;;;5.42;70.63
41703;BME280;861;48.808;9.006;2023-01-31T10:44:04;98048.13;;;5.46;71.12
41703;BME280;861;48.808;9.006;2023-01-31T10:46:57;98046.34;;;5.29;71.08
41703;BME280;861;48.808;9.006;2023-01-31T10:49:28;98052.00;;;5.36;70.75
41703;BME280;861;48.808;9.006;2023-01-31T10:58:23;98034.25;;;5.56;70.38
41703;BME280;861;48.808;9.006;2023-01-31T11:00:50;98029.63;;;5.77;69.95
41703;BME280;861;48.808;9.006;2023-01-31T11:03:18;98028.88;;;5.56;71.20
41703;BME280;861;48.808;9.006;2023-01-31T11:05:53;98043.94;;;5.86;70.41
41703;BME280;861;48.808;9.006;2023-01-31T11:08:46;98043.00;;;6.02;69.06
41703;BME280;861;48.808;9.006;2023-01-31T11:11:21;98038.84;;;5.84;69.03
41703;BME280;861;48.808;9.006;2023-01-31T11:14:03;98037.91;;;6.01;68.80
41703;BME280;861;48.808;9.006;2023-01-31T11:16:39;98025.78;;;5.86;69.20
41703;BME280;861;48.808;9.006;2023-01-31T11:19:55;98024.13;;;6.14;69.25
41703;BME280;861;48.808;9.006;2023-01-31T11:22:36;98004.09;;;5.95;69.62
41703;BME280;861;48.808;9.006;2023-01-31T11:25:05;98002.41;;;5.90;70.50
41703;BME280;861;48.808;9.006;2023-01-31T11:27:42;97992.00;;;6.13;67.50
41703;BME280;861;48.808;9.006;2023-01-31T11:30:38;97981.16;;;6.01;66.58
41703;BME280;861;48.808;9.006;2023-01-31T11:33:05;97979.53;;;6.20;67.22
41703;BME280;861;48.808;9.006;2023-01-31T11:35:34;97967.03;;;6.16;66.62
41703;BME280;861;48.808;9.006;2023-01-31T11:38:29;97953.84;;;6.14;65.48
41703;BME280;861;48.808;9.006;2023-01-31T11:40:55;97938.50;;;6.06;67.23
41703;BME280;861;48.808;9.006;2023-01-31T11:43:29;97940.94;;;5.99;67.77
41703;BME280;861;48.808;9.006;2023-01-31T11:46:01;97943.97;;;5.77;65.96
41703;BME280;861;48.808;9.006;2023-01-31T11:48:43;97940.56;;;5.68;66.14
41703;BME280;861;48.808;9.006;2023-01-31T11:51:30;97964.28;;;5.63;65.64
41703;BME280;861;48.808;9.006;2023-01-31T11:53:57;97975.88;;;5.63;66.53
41703;BME280;861;48.808;9.006;2023-01-31T12:00:33;97989.03;;;5.94;65.26
41703;BME280;861;48.808;9.006;2023-01-31T12:03:11;97989.72;;;6.03;64.33
41703;BME280;861;48.808;9.006;2023-01-31T12:05:49;97956.81;;;6.01;65.60
41703;BME280;861;48.808;9.006;2023-01-31T12:08:40;97962.69;;;6.03;65.28
41703;BME280;861;48.808;9.006;2023-01-31T12:11:32;97960.38;;;5.93;65.09
41703;BME280;861;48.808;9.006;2023-01-31T12:14:14;97943.84;;;5.74;66.07
41703;BME280;861;48.808;9.006;2023-01-31T12:16:46;97954.41;;;5.67;66.84
41703;BME280;861;48.808;9.006;2023-01-31T12:19:49;97944.31;;;5.76;66.88
41703;BME280;861;48.808;9.006;2023-01-31T12:22:29;97930.28;;;5.62;66.78
41703;BME280;861;48.808;9.006;2023-01-31T12:25:45;97912.06;;;5.38;67.83
41703;BME280;861;48.808;9.006;2023-01-31T12:29:06;97926.13;;;5.44;67.46
41703;BME280;861;48.808;9.006;2023-01-31T12:32:35;97901.25;;;5.38;68.17
41703;BME280;861;48.808;9.006;2023-01-31T12:42:56;97908.41;;;5.34;68.44
41703;BME280;861;48.808;9.006;2023-01-31T12:52:33;97881.63;;;5.50;67.46
41703;BME280;861;48.808;9.006;2023-01-31T12:55:23;97907.19;;;5.32;68.11
41703;BME280;861;48.808;9.006;2023-01-31T12:58:50;97889.19;;;5.36;67.28
41703;BME280;861;48.808;9.006;2023-01-31T13:02:01;97881.88;;;5.16;68.05
41703;BME280;861;48.808;9.006;2023-01-31T13:08:21;97872.59;;;5.25;67.97
41703;BME280;861;48.808;9.006;2023-01-31T13:11:00;97875.84;;;5.19;68.70
41703;BME280;861;48.808;9.006;2023-01-31T13:13:46;97877.09;;;5.21;68.35
41703;BME280;861;48.808;9.006;2023-01-31T13:16:28;97869.44;;;5.23;69.01
41703;BME280;861;48.808;9.006;2023-01-31T13:19:05;97870.56;;;5.02;68.26
41703;BME280;861;48.808;9.006;2023-01-31T13:21:48;97866.50;;;5.16;68.72
41703;BME280;861;48.808;9.006;2023-01-31T13:24:41;97861.47;;;4.86;70.83
41703;BME280;861;48.808;9.006;2023-01-31T13:27:39;97856.09;;;5.06;69.85
41703;BME280;861;48.808;9.006;2023-01-31T13:30:47;97839.69;;;5.32;68.85
41703;BME280;861;48.808;9.006;2023-01-31T13:39:08;97864.66;;;5.29;69.32
41703;BME280;861;48.808;9.006;2023-01-31T13:41:45;97850.28;;;5.37;68.69
41703;BME280;861;48.808;9.006;2023-01-31T13:44:14;97852.47;;;5.23;69.72
41703;BME280;861;48.808;9.006;2023-01-31T13:50:41;97845.41;;;5.30;69.59
41703;BME280;861;48.808;9.006;2023-01-31T13:53:30;97848.06;;;4.98;70.50
41703;BME280;861;48.808;9.006;2023-01-31T13:56:13;97846.59;;;4.80;70.51
41703;BME280;861;48.808;9.006;2023-01-31T13:58:50;97844.28;;;4.90;69.92
41703;BME280;861;48.808;9.006;2023-01-31T14:01:25;97853.66;;;4.93;69.60
41703;BME280;861;48.808;9.006;2023-01-31T14:09:28;97849.28;;;4.59;71.45
41703;BME280;861;48.808;9.006;2023-01-31T14:14:55;97827.53;;;4.85;69.87
41703;BME280;861;48.808;9.006;2023-01-31T14:22:27;97807.41;;;5.03;69.98
41703;BME280;861;48.808;9.006;2023-01-31T14:25:14;97822.41;;;4.92;70.63
41703;BME280;861;48.808;9.006;2023-01-31T14:28:09;97809.44;;;5.06;70.31
41703;BME280;861;48.808;9.006;2023-01-31T14:30:42;97815.09;;;4.92;69.81
41703;BME280;861;48.808;9.006;2023-01-31T14:39:15;97798.84;;;5.33;69.53
41703;BME280;861;48.808;9.006;2023-01-31T14:45:54;97803.56;;;5.36;69.21
41703;BME280;861;48.808;9.006;2023-01-31T14:52:23;97804.06;;;5.18;69.36
41703;BME280;861;48.808;9.006;2023-01-31T14:55:38;97812.63;;;5.52;68.69
41703;BME280;861;48.808;9.006;2023-01-31T14:58:30;97807.28;;;5.32;69.01
41703;BME280;861;48.808;9.006;2023-01-31T15:01:05;97804.78;;;5.27;68.73
41703;BME280;861;48.808;9.006;2023-01-31T15:03:55;97805.19;;;5.37;68.56
41703;BME280;861;48.808;9.006;2023-01-31T15:06:38;97806.47;;;4.99;69.71
41703;BME280;861;48.808;9.006;2023-01-31T15:11:54;97822.78;;;5.23;69.45
41703;BME280;861;48.808;9.006;2023-01-31T15:14:34;97829.50;;;5.49;68.84
41703;BME280;861;48.808;9.006;2023-01-31T15:17:16;97829.38;;;5.46;69.38
41703;BME280;861;48.808;9.006;2023-01-31T15:20:17;97840.59;;;5.36;69.20
41703;BME280;861;48.808;9.006;2023-01-31T15:22:56;97829.38;;;5.46;69.95
41703;BME280;861;48.808;9.006;2023-01-31T15:25:42;97830.41;;;5.21;69.94
41703;BME280;861;48.808;9.006;2023-01-31T15:28:33;97823.88;;;5.22;70.29
41703;BME280;861;48.808;9.006;2023-01-31T15:31:24;97825.72;;;5.30;69.87
41703;BME280;861;48.808;9.006;2023-01-31T15:34:12;97820.56;;;5.04;70.03
41703;BME280;861;48.808;9.006;2023-01-31T15:37:08;97838.34;;;5.38;69.83
41703;BME280;861;48.808;9.006;2023-01-31T15:40:05;97827.88;;;5.36;69.41
41703;BME280;861;48.808;9.006;2023-01-31T15:42:42;97829.59;;;5.20;70.32
41703;BME280;861;48.808;9.006;2023-01-31T15:45:29;97817.91;;;5.16;70.43
41703;BME280;861;48.808;9.006;2023-01-31T15:48:06;97836.03;;;5.48;70.09
41703;BME280;861;48.808;9.006;2023-01-31T15:50:36;97831.25;;;5.33;70.47
41703;BME280;861;48.808;9.006;2023-01-31T15:53:16;97834.38;;;5.56;69.08
41703;BME280;861;48.808;9.006;2023-01-31T15:55:48;97827.28;;;5.51;70.10
41703;BME280;861;48.808;9.006;2023-01-31T15:58:23;97833.38;;;5.60;69.71
41703;BME280;861;48.808;9.006;2023-01-31T16:00:56;97839.97;;;5.51;70.68
41703;BME280;861;48.808;9.006;2023-01-31T16:11:35;97840.59;;;5.36;70.95